Time;durP1;ratioP1;P1;durP2;ratioP2;P2;SDS_P1;SDS_P2;PMS_P1;PMS_P2;Temp;Humidity;BMP_temperature;BMP_pressure;BME280_temperature;BME280_humidity;BME280_pressure;Samples;Min_cycle;Max_cycle;Signal;HPM_P1;HPM_P2
2023/09/19 00:00:58;;;;;;;;;1.50;1.00;;;;;19.13;58.22;101027.31;5036298;28;45628;-44
2023/09/19 00:03:24;;;;;;;;;1.50;1.50;;;;;19.11;58.28;101021.28;5036140;28;47326;-46
2023/09/19 00:05:50;;;;;;;;;2.25;0.00;;;;;18.97;58.03;101011.44;5036101;28;45443;-41
2023/09/19 00:08:15;;;;;;;;;2.00;0.00;;;;;18.91;57.99;101008.47;5036092;28;45278;-40
2023/09/19 00:10:42;;;;;;;;;1.00;1.00;;;;;18.99;58.05;101023.69;5036521;28;45550;-39
2023/09/19 00:13:12;;;;;;;;;2.75;0.75;;;;;18.99;58.05;101025.53;5034352;28;45474;-43
2023/09/19 00:15:40;;;;;;;;;1.50;1.00;;;;;18.99;57.78;101031.75;5036075;28;45210;-46
2023/09/19 00:18:07;;;;;;;;;1.00;1.00;;;;;18.97;57.99;101033.84;5036069;28;45410;-40
2023/09/19 00:20:35;;;;;;;;;2.75;0.00;;;;;18.94;57.61;101029.66;5036392;28;45398;-44
2023/09/19 00:23:08;;;;;;;;;1.00;0.00;;;;;18.97;57.54;101033.84;5035959;28;45960;-39
2023/09/19 00:25:35;;;;;;;;;0.00;0.00;;;;;18.94;57.30;101039.63;5035923;28;45380;-41
2023/09/19 00:28:01;;;;;;;;;0.50;0.50;;;;;18.95;57.50;101038.56;5035868;28;45165;-39
2023/09/19 00:30:27;;;;;;;;;0.50;0.00;;;;;18.96;57.68;101040.25;5036459;28;45233;-39
2023/09/19 00:32:54;;;;;;;;;4.00;0.75;;;;;18.91;57.60;101034.59;5035783;28;46516;-39
2023/09/19 00:35:25;;;;;;;;;0.75;0.75;;;;;18.82;57.92;101033.06;5035694;28;45456;-38
2023/09/19 00:37:51;;;;;;;;;2.00;0.50;;;;;18.81;58.03;101040.31;5035947;28;45330;-39
2023/09/19 00:40:17;;;;;;;;;1.00;1.00;;;;;18.82;58.25;101041.16;5035991;28;45340;-40
2023/09/19 00:42:46;;;;;;;;;1.00;1.00;;;;;18.81;58.19;101044.88;5035768;28;45513;-44
2023/09/19 00:45:14;;;;;;;;;0.50;0.25;;;;;18.77;58.56;101049.81;5035613;28;45388;-39
2023/09/19 00:47:48;;;;;;;;;5.00;1.50;;;;;18.73;58.86;101053.94;5035704;28;45396;-41
2023/09/19 00:50:17;;;;;;;;;0.25;0.25;;;;;18.70;59.00;101060.53;5035896;28;45354;-40
2023/09/19 00:52:43;;;;;;;;;3.50;1.00;;;;;18.68;59.19;101057.19;5035000;28;45278;-47
2023/09/19 00:55:10;;;;;;;;;3.00;1.00;;;;;18.65;59.56;101056.72;5035633;28;45610;-39
2023/09/19 00:57:38;;;;;;;;;0.00;0.00;;;;;18.54;59.39;101041.06;5035739;28;45349;-49
2023/09/19 01:00:06;;;;;;;;;2.50;0.00;;;;;18.64;59.48;101061.28;5036558;28;45303;-38
2023/09/19 01:02:33;;;;;;;;;1.75;1.75;;;;;18.60;59.57;101051.91;5038954;28;46263;-39
2023/09/19 01:05:02;;;;;;;;;3.75;1.00;;;;;18.59;59.85;101058.34;5039033;28;45371;-39
2023/09/19 01:07:30;;;;;;;;;2.25;0.50;;;;;18.57;60.02;101054.97;5039114;28;45454;-40
2023/09/19 01:09:58;;;;;;;;;2.25;0.50;;;;;18.52;60.31;101057.41;5039329;28;45309;-39
2023/09/19 01:12:40;;;;;;;;;0.00;0.00;;;;;18.50;60.12;101055.94;5039034;28;47197;-42
2023/09/19 01:15:33;;;;;;;;;0.00;0.00;;;;;18.47;60.35;101062.56;5039157;28;45509;-41
2023/09/19 01:18:21;;;;;;;;;2.50;0.50;;;;;18.48;60.75;101063.38;5039085;28;45414;-39
2023/09/19 01:21:15;;;;;;;;;1.00;0.25;;;;;18.43;60.63;101059.41;5039281;28;45431;-40
2023/09/19 01:24:14;;;;;;;;;2.50;1.00;;;;;18.39;60.69;101062.66;5038561;28;47136;-39
2023/09/19 01:27:11;;;;;;;;;0.75;0.75;;;;;18.36;61.33;101069.25;5038794;28;45464;-49
2023/09/19 01:29:44;;;;;;;;;0.00;0.00;;;;;18.35;61.54;101066.75;5038817;28;45350;-43
2023/09/19 01:32:14;;;;;;;;;2.50;1.00;;;;;18.35;61.58;101069.47;5039117;28;45341;-40
2023/09/19 01:34:47;;;;;;;;;1.25;1.00;;;;;18.29;61.44;101062.16;5038298;28;46277;-38
2023/09/19 01:37:14;;;;;;;;;0.75;0.75;;;;;18.28;61.64;101063.16;5038430;28;45342;-42
2023/09/19 01:39:40;;;;;;;;;2.25;0.00;;;;;18.28;61.29;101068.53;5038690;28;45415;-40
2023/09/19 01:42:33;;;;;;;;;2.00;0.50;;;;;18.26;61.62;101063.34;5038782;28;45358;-39
2023/09/19 01:45:21;;;;;;;;;0.00;0.00;;;;;18.20;61.39;101069.47;5038348;28;46192;-39
2023/09/19 01:47:55;;;;;;;;;1.50;1.50;;;;;18.18;61.39;101071.53;5038347;28;45316;-39
2023/09/19 01:51:06;;;;;;;;;3.00;2.25;;;;;18.19;61.28;101073.19;5037111;28;45343;-39
2023/09/19 01:53:55;;;;;;;;;1.25;1.25;;;;;18.16;61.52;101076.25;5035499;28;45374;-38
2023/09/19 01:56:32;;;;;;;;;1.25;0.00;;;;;18.08;61.53;101066.47;5038128;28;47260;-40
2023/09/19 01:59:04;;;;;;;;;0.25;0.00;;;;;18.10;61.78;101060.88;5038098;28;45431;-39
2023/09/19 02:01:31;;;;;;;;;1.00;1.00;;;;;18.05;62.15;101074.91;5038374;28;45232;-40
2023/09/19 02:03:57;;;;;;;;;2.00;1.00;;;;;18.08;62.09;101079.09;5038630;28;45331;-40
2023/09/19 02:06:26;;;;;;;;;2.00;1.75;;;;;18.05;61.76;101080.28;5038126;28;46157;-39
2023/09/19 02:08:53;;;;;;;;;0.75;0.75;;;;;18.05;62.04;101088.34;5037691;28;45307;-41
2023/09/19 02:11:18;;;;;;;;;2.00;0.00;;;;;18.03;61.97;101085.00;5037772;28;45462;-41
2023/09/19 02:13:44;;;;;;;;;3.00;3.00;;;;;17.89;62.41;101069.72;5038034;28;45168;-44
2023/09/19 02:16:10;;;;;;;;;0.25;0.25;;;;;17.98;62.11;101082.03;5038290;28;45291;-42
2023/09/19 02:18:36;;;;;;;;;1.75;0.00;;;;;17.95;62.13;101087.81;5038388;28;45433;-41
2023/09/19 02:21:03;;;;;;;;;2.00;2.00;;;;;17.87;62.47;101096.00;5037871;28;45449;-39
2023/09/19 02:23:30;;;;;;;;;3.50;1.00;;;;;17.63;62.68;101056.69;5038085;28;45265;-41
2023/09/19 02:26:00;;;;;;;;;3.00;1.00;;;;;17.77;63.07;101090.88;5037817;28;47207;-40
2023/09/19 02:28:29;;;;;;;;;1.50;0.75;;;;;17.76;62.87;101089.19;5037663;28;45353;-39
2023/09/19 02:30:55;;;;;;;;;0.50;0.50;;;;;17.71;62.97;101081.66;5037941;28;45421;-39
2023/09/19 02:33:21;;;;;;;;;1.75;0.25;;;;;17.74;63.08;101083.19;5037877;28;45496;-39
2023/09/19 02:35:46;;;;;;;;;1.00;1.00;;;;;17.75;62.73;101075.94;5037153;28;46187;-39
2023/09/19 02:38:12;;;;;;;;;1.00;0.50;;;;;17.71;62.81;101076.28;5037888;28;45382;-39
2023/09/19 02:40:37;;;;;;;;;0.00;0.00;;;;;17.68;62.76;101084.72;5037468;28;45354;-41
2023/09/19 02:43:04;;;;;;;;;5.00;1.00;;;;;17.67;62.57;101079.53;5037950;28;45320;-38
2023/09/19 02:45:30;;;;;;;;;3.00;1.00;;;;;17.68;62.89;101078.50;5036993;28;45309;-39
2023/09/19 02:47:56;;;;;;;;;2.00;0.50;;;;;17.61;63.01;101074.88;5037627;28;45200;-41
2023/09/19 02:50:22;;;;;;;;;2.25;1.00;;;;;17.65;63.07;101086.94;5037596;28;45385;-39
2023/09/19 02:52:48;;;;;;;;;1.25;0.75;;;;;17.47;62.97;101063.09;5037651;28;45490;-39
2023/09/19 02:55:17;;;;;;;;;3.25;1.00;;;;;17.54;63.32;101085.53;5037350;28;45653;-39
2023/09/19 02:57:49;;;;;;;;;1.00;1.00;;;;;17.55;63.19;101087.22;5037379;28;45488;-38
2023/09/19 03:00:16;;;;;;;;;2.25;0.50;;;;;17.52;63.40;101087.56;5037467;28;45402;-39
2023/09/19 03:02:42;;;;;;;;;2.00;1.00;;;;;17.53;63.23;101083.88;5037475;28;45684;-39
2023/09/19 03:05:08;;;;;;;;;2.75;1.25;;;;;17.37;63.29;101057.97;5037116;28;45727;-39
2023/09/19 03:07:34;;;;;;;;;0.25;0.25;;;;;17.44;63.36;101067.00;5037155;28;45366;-39
2023/09/19 03:09:59;;;;;;;;;2.50;1.00;;;;;17.45;63.52;101078.59;5037215;28;45314;-39
2023/09/19 03:12:26;;;;;;;;;3.00;3.00;;;;;17.39;63.86;101087.38;5037653;28;45319;-40
2023/09/19 03:14:51;;;;;;;;;2.25;1.00;;;;;17.38;63.83;101080.31;5037062;28;45916;-43
2023/09/19 03:17:17;;;;;;;;;2.00;2.00;;;;;17.33;63.91;101071.97;5037032;28;45381;-44
2023/09/19 03:19:42;;;;;;;;;1.00;1.00;;;;;17.38;63.56;101081.16;5037049;28;45358;-40
2023/09/19 03:22:08;;;;;;;;;1.00;0.50;;;;;17.34;63.57;101082.53;5036236;28;45591;-40
2023/09/19 03:24:33;;;;;;;;;2.75;1.75;;;;;17.34;63.66;101079.03;5035602;28;45381;-41
2023/09/19 03:26:59;;;;;;;;;2.25;1.00;;;;;17.32;63.42;101065.78;5036997;28;45448;-39
2023/09/19 03:29:25;;;;;;;;;1.75;1.00;;;;;17.15;64.22;101057.03;5037091;28;45449;-40
2023/09/19 03:31:51;;;;;;;;;2.50;1.00;;;;;17.34;64.29;101084.41;5036879;28;45521;-39
2023/09/19 03:34:16;;;;;;;;;0.75;0.25;;;;;17.37;64.36;101084.03;5036785;28;46943;-38
2023/09/19 03:36:42;;;;;;;;;3.25;1.25;;;;;17.38;63.78;101089.22;5036359;28;45352;-41
2023/09/19 03:39:07;;;;;;;;;1.00;1.00;;;;;17.40;64.04;101083.66;5035528;28;45379;-39
2023/09/19 03:41:33;;;;;;;;;3.25;1.00;;;;;17.42;63.71;101087.84;5036741;28;45517;-41
2023/09/19 03:43:58;;;;;;;;;2.50;0.25;;;;;17.42;63.58;101082.47;5036476;28;46183;-40
2023/09/19 03:46:24;;;;;;;;;4.50;2.50;;;;;17.42;63.55;101084.31;5036963;28;45322;-40
2023/09/19 03:48:50;;;;;;;;;3.00;1.00;;;;;17.39;63.48;101082.81;5036243;28;45559;-39
2023/09/19 03:51:15;;;;;;;;;1.00;1.00;;;;;17.32;63.54;101083.72;5036766;28;45451;-38
2023/09/19 03:53:41;;;;;;;;;1.00;1.00;;;;;17.35;63.41;101080.69;5036503;28;45662;-39
2023/09/19 03:56:08;;;;;;;;;4.75;1.75;;;;;17.36;63.56;101088.59;5036340;28;45359;-39
2023/09/19 03:58:34;;;;;;;;;4.25;2.00;;;;;17.35;63.68;101088.75;5036817;28;45296;-40
2023/09/19 04:01:00;;;;;;;;;1.00;0.00;;;;;17.31;63.44;101074.84;5036450;28;45486;-40
2023/09/19 04:03:34;;;;;;;;;1.50;1.00;;;;;17.27;63.48;101075.38;5036372;28;46465;-40
2023/09/19 04:05:59;;;;;;;;;1.00;1.00;;;;;17.27;64.03;101072.69;5036247;28;45354;-40
2023/09/19 04:08:25;;;;;;;;;2.25;1.00;;;;;17.25;63.70;101077.44;5036400;28;45829;-42
2023/09/19 04:10:51;;;;;;;;;1.50;1.00;;;;;17.29;63.75;101079.56;5035821;28;45311;-39
2023/09/19 04:13:16;;;;;;;;;1.50;1.50;;;;;17.28;63.94;101080.59;5035931;28;47128;-39
2023/09/19 04:15:41;;;;;;;;;1.50;0.00;;;;;17.28;63.56;101075.22;5035982;28;49522;-46
2023/09/19 04:18:07;;;;;;;;;1.25;1.25;;;;;17.27;63.99;101075.38;5034842;28;45292;-39
2023/09/19 04:20:32;;;;;;;;;0.75;0.75;;;;;17.27;63.64;101072.69;5036280;28;45439;-40
2023/09/19 04:22:59;;;;;;;;;1.25;1.25;;;;;17.27;63.79;101072.69;5035772;28;46121;-40
2023/09/19 04:25:27;;;;;;;;;3.50;2.00;;;;;17.28;63.56;101066.31;5036024;28;45286;-40
2023/09/19 04:27:52;;;;;;;;;4.25;1.25;;;;;17.25;63.72;101069.38;5036125;28;45398;-41
2023/09/19 04:30:18;;;;;;;;;1.50;1.50;;;;;17.25;63.76;101069.38;5036329;28;45522;-39
2023/09/19 04:32:43;;;;;;;;;4.50;1.25;;;;;17.25;63.67;101077.44;5034967;28;46196;-39
2023/09/19 04:35:11;;;;;;;;;2.50;1.00;;;;;17.23;63.87;101074.91;5037718;28;46731;-39
2023/09/19 04:37:41;;;;;;;;;1.50;1.00;;;;;17.21;63.55;101079.66;5042737;28;45386;-37
2023/09/19 04:40:12;;;;;;;;;2.75;2.00;;;;;17.19;63.40;101082.53;5042797;28;45779;-41
2023/09/19 04:42:39;;;;;;;;;1.50;1.00;;;;;17.20;63.60;101077.97;5042664;28;46169;-40
2023/09/19 04:45:05;;;;;;;;;1.00;1.00;;;;;17.17;63.45;101073.78;5042385;28;45443;-39
2023/09/19 04:47:30;;;;;;;;;3.33;2.00;;;;;17.12;63.74;101070.81;5042258;28;45433;-38
2023/09/19 04:49:56;;;;;;;;;1.67;1.67;;;;;17.08;63.85;101068.69;5042836;28;45569;-48
2023/09/19 04:52:22;;;;;;;;;2.50;1.00;;;;;17.08;64.11;101074.88;5042303;28;46197;-39
2023/09/19 04:54:48;;;;;;;;;3.00;1.00;;;;;17.06;63.82;101090.34;5042665;28;45410;-43
2023/09/19 04:57:13;;;;;;;;;1.00;1.00;;;;;17.06;63.96;101086.81;5042681;28;45240;-41
2023/09/19 04:59:41;;;;;;;;;2.00;1.33;;;;;17.05;64.23;101085.16;5041246;28;45520;-39
2023/09/19 05:02:07;;;;;;;;;2.50;2.00;;;;;16.95;63.92;101093.47;5041220;28;46182;-39
2023/09/19 05:04:33;;;;;;;;;4.25;0.75;;;;;16.97;64.14;101102.19;5042291;28;45401;-39
2023/09/19 05:06:58;;;;;;;;;2.00;1.33;;;;;16.91;64.45;101098.38;5042132;28;46376;-40
2023/09/19 05:09:24;;;;;;;;;1.00;1.00;;;;;16.89;64.74;101108.44;5041231;28;45532;-40
2023/09/19 05:11:51;;;;;;;;;2.67;1.00;;;;;16.86;64.81;101102.63;5041581;28;46209;-40
2023/09/19 05:14:16;;;;;;;;;5.00;2.00;;;;;16.82;65.00;101094.06;5041984;28;45330;-40
2023/09/19 05:16:42;;;;;;;;;2.00;2.00;;;;;16.81;65.15;101102.28;5042200;28;45547;-39
2023/09/19 05:19:11;;;;;;;;;5.00;2.00;;;;;16.78;65.21;101105.34;5042233;28;45277;-41
2023/09/19 05:21:38;;;;;;;;;2.67;2.00;;;;;16.76;65.56;101105.50;5041879;28;46915;-41
2023/09/19 05:24:06;;;;;;;;;2.00;2.00;;;;;16.75;65.74;101098.47;5041909;28;45409;-43
2023/09/19 05:26:32;;;;;;;;;2.00;1.33;;;;;16.77;65.35;101106.34;5041873;28;45325;-43
2023/09/19 05:28:57;;;;;;;;;4.00;2.00;;;;;16.79;65.68;101105.16;5040909;28;45412;-42
2023/09/19 05:31:23;;;;;;;;;1.00;1.00;;;;;16.74;65.42;101102.19;5041564;28;54179;-40
2023/09/19 05:33:48;;;;;;;;;4.00;2.00;;;;;16.80;65.56;101120.25;5041752;28;45343;-39
2023/09/19 05:36:16;;;;;;;;;5.33;2.00;;;;;16.77;65.64;101109.03;5041507;28;45332;-40
2023/09/19 05:38:42;;;;;;;;;1.00;1.00;;;;;16.82;65.09;101112.88;5041979;28;45510;-44
2023/09/19 05:41:09;;;;;;;;;4.67;2.00;;;;;16.86;65.03;101119.56;5040200;28;46117;-45
2023/09/19 05:43:37;;;;;;;;;2.00;2.00;;;;;16.83;65.08;101119.09;5041490;28;45380;-42
2023/09/19 05:46:03;;;;;;;;;6.33;2.00;;;;;16.76;65.14;101112.75;5041257;28;45383;-41
2023/09/19 05:48:28;;;;;;;;;4.00;1.00;;;;;16.83;64.96;101127.97;5038360;28;45524;-49
2023/09/19 05:50:53;;;;;;;;;2.67;1.00;;;;;16.85;65.50;101134.00;5037203;28;45707;-41
2023/09/19 05:53:19;;;;;;;;;4.00;3.00;;;;;16.87;65.07;101131.97;5037205;28;45381;-41
2023/09/19 05:55:45;;;;;;;;;2.67;1.00;;;;;16.89;64.94;101140.69;5038520;28;45322;-39
2023/09/19 05:58:13;;;;;;;;;4.00;1.00;;;;;16.76;65.16;101112.75;5037338;28;45599;-38
2023/09/19 06:00:41;;;;;;;;;1.00;1.00;;;;;16.95;64.79;101145.38;5037768;28;46116;-52
2023/09/19 06:03:06;;;;;;;;;3.67;1.33;;;;;16.98;64.64;101144.19;5037770;28;45263;-48
2023/09/19 06:05:32;;;;;;;;;4.00;2.00;;;;;16.91;65.15;101127.94;5038275;28;45469;-47
2023/09/19 06:08:01;;;;;;;;;6.33;1.33;;;;;16.96;64.89;101133.59;5038436;28;45558;-46
2023/09/19 06:10:28;;;;;;;;;2.00;2.00;;;;;17.10;65.11;101158.84;5038247;28;46265;-43
2023/09/19 06:12:55;;;;;;;;;1.50;0.75;;;;;17.16;64.54;101144.72;5037853;28;45379;-49
2023/09/19 06:15:24;;;;;;;;;5.00;1.33;;;;;17.22;64.02;101148.53;5038095;28;45773;-40
2023/09/19 06:17:51;;;;;;;;;1.00;1.00;;;;;17.25;64.14;101153.53;5038153;28;45435;-43
2023/09/19 06:20:17;;;;;;;;;4.00;1.00;;;;;17.28;64.09;101150.50;5037316;28;46334;-46
2023/09/19 06:22:45;;;;;;;;;3.25;1.00;;;;;17.31;63.99;101152.81;5037885;28;45496;-41
2023/09/19 06:25:12;;;;;;;;;2.00;0.00;;;;;17.32;63.74;101150.94;5037974;28;45380;-38
2023/09/19 06:27:42;;;;;;;;;3.00;1.00;;;;;17.39;63.28;101157.28;5037752;28;45516;-46
2023/09/19 06:30:09;;;;;;;;;1.50;1.50;;;;;17.41;63.38;101153.41;5037668;28;46499;-43
2023/09/19 06:32:34;;;;;;;;;1.00;0.75;;;;;17.44;63.44;101155.75;5037178;28;45463;-43
2023/09/19 06:35:00;;;;;;;;;3.67;1.00;;;;;17.49;63.08;101154.34;5037753;28;45837;-45
2023/09/19 06:37:29;;;;;;;;;1.00;1.00;;;;;17.51;63.48;101153.16;5038123;28;45428;-43
2023/09/19 06:39:54;;;;;;;;;3.50;2.75;;;;;17.58;62.82;101161.34;5037470;28;45445;-43
2023/09/19 06:42:22;;;;;;;;;2.33;2.00;;;;;17.62;62.93;101160.78;5037475;28;45380;-44
2023/09/19 06:44:48;;;;;;;;;1.67;1.67;;;;;17.67;62.44;101161.06;5037638;28;45401;-45
2023/09/19 06:47:16;;;;;;;;;3.00;3.00;;;;;17.68;62.81;101154.66;5037883;28;45548;-38
2023/09/19 06:49:43;;;;;;;;;0.67;0.00;;;;;17.71;62.47;101159.69;5037272;28;46186;-41
2023/09/19 06:52:09;;;;;;;;;2.50;2.00;;;;;17.75;62.26;101156.66;5037501;28;45368;-40
2023/09/19 06:54:35;;;;;;;;;4.00;1.00;;;;;17.80;62.08;101154.25;5037601;28;45734;-42
2023/09/19 06:57:01;;;;;;;;;2.25;1.50;;;;;17.83;61.95;101164.66;5037659;28;45517;-42
2023/09/19 06:59:27;;;;;;;;;3.00;1.33;;;;;17.89;61.57;101155.84;5037232;28;46888;-39
2023/09/19 07:01:52;;;;;;;;;3.25;0.75;;;;;17.91;61.79;101161.88;5037238;28;45371;-42
2023/09/19 07:04:19;;;;;;;;;2.67;1.67;;;;;17.99;61.38;101158.25;5036676;28;45441;-40
2023/09/19 07:06:49;;;;;;;;;3.00;1.50;;;;;18.02;61.23;101139.88;5037375;28;45451;-43
2023/09/19 07:09:15;;;;;;;;;4.00;1.00;;;;;18.14;61.00;101151.84;5037122;28;46381;-47
2023/09/19 07:11:40;;;;;;;;;3.00;2.00;;;;;18.23;60.68;101151.75;5037148;28;45397;-41
2023/09/19 07:14:05;;;;;;;;;3.00;1.00;;;;;18.36;60.71;101160.00;5037129;28;45449;-44
2023/09/19 07:16:31;;;;;;;;;3.75;0.50;;;;;18.43;59.97;101159.06;5037671;28;45399;-38
2023/09/19 07:18:57;;;;;;;;;2.75;2.00;;;;;18.57;59.79;101156.53;5037278;28;45591;-45
2023/09/19 07:21:23;;;;;;;;;9.50;2.75;;;;;18.67;59.53;101162.47;5036824;28;45347;-38
2023/09/19 07:23:49;;;;;;;;;2.00;2.00;;;;;18.79;58.76;101157.44;5037299;28;45274;-37
2023/09/19 07:26:15;;;;;;;;;1.00;0.75;;;;;18.77;58.47;101130.69;5036990;28;45523;-41
2023/09/19 07:28:40;;;;;;;;;5.00;2.00;;;;;18.95;58.00;101151.81;5036846;28;46318;-39
2023/09/19 07:31:10;;;;;;;;;1.50;1.25;;;;;19.04;57.96;101152.50;5037001;28;45386;-48
2023/09/19 07:33:36;;;;;;;;;2.00;2.00;;;;;19.14;57.81;101155.75;5036993;28;45306;-39
2023/09/19 07:36:01;;;;;;;;;4.25;2.50;;;;;19.25;57.16;101149.81;5036892;28;45516;-42
2023/09/19 07:38:28;;;;;;;;;7.50;4.25;;;;;19.37;57.09;101152.81;5036636;28;46415;-41
2023/09/19 07:41:00;;;;;;;;;1.75;1.00;;;;;19.51;56.50;101140.25;5036915;28;45437;-42
2023/09/19 07:43:26;;;;;;;;;6.25;2.00;;;;;19.69;56.11;101144.19;5036922;28;45410;-39
2023/09/19 07:45:52;;;;;;;;;6.50;3.00;;;;;19.78;55.93;101146.75;5036993;28;45410;-40
2023/09/19 07:48:17;;;;;;;;;1.75;1.00;;;;;19.84;54.88;101132.44;5036389;28;46856;-41
2023/09/19 07:50:43;;;;;;;;;3.00;1.50;;;;;19.94;54.99;101138.34;5036310;28;48354;-44
2023/09/19 07:53:09;;;;;;;;;3.75;2.00;;;;;20.02;54.43;101135.47;5036837;28;45445;-38
2023/09/19 07:55:34;;;;;;;;;1.00;1.00;;;;;20.09;54.67;101138.19;5036855;28;45319;-39
2023/09/19 07:58:00;;;;;;;;;15.50;11.50;;;;;20.05;54.75;101145.84;5036280;28;46177;-39
2023/09/19 08:00:25;;;;;;;;;4.75;3.00;;;;;20.10;54.59;101143.41;5035016;28;45376;-39
2023/09/19 08:02:52;;;;;;;;;2.00;1.00;;;;;20.15;53.89;101145.53;5032590;28;45429;-39
2023/09/19 08:05:18;;;;;;;;;3.00;2.00;;;;;20.21;54.09;101151.97;5032090;28;45227;-41
2023/09/19 08:07:52;;;;;;;;;1.25;1.25;;;;;20.32;53.71;101149.53;5030418;28;46213;-39
2023/09/19 08:10:19;;;;;;;;;5.75;3.00;;;;;20.36;53.71;101148.13;5030004;28;45445;-42
2023/09/19 08:12:47;;;;;;;;;4.25;1.50;;;;;20.29;53.84;101143.72;5031682;28;45396;-39
2023/09/19 08:15:13;;;;;;;;;2.50;1.00;;;;;20.32;54.68;101143.31;5035189;28;45382;-38
2023/09/19 08:17:39;;;;;;;;;2.25;1.50;;;;;20.26;52.85;101147.63;5034067;28;47656;-39
2023/09/19 08:20:05;;;;;;;;;3.00;1.00;;;;;20.33;53.35;101150.38;5034899;28;45417;-40
2023/09/19 08:22:31;;;;;;;;;0.75;0.50;;;;;20.24;53.53;101122.69;5033833;28;45326;-38
2023/09/19 08:24:58;;;;;;;;;4.75;1.00;;;;;20.35;53.06;101140.19;5034709;28;45587;-40
2023/09/19 08:27:26;;;;;;;;;3.75;1.00;;;;;20.42;52.79;101147.28;5033989;28;45397;-39
2023/09/19 08:29:52;;;;;;;;;4.00;1.00;;;;;20.50;52.39;101156.31;5033364;28;45517;-39
2023/09/19 08:32:19;;;;;;;;;2.50;2.25;;;;;20.70;51.69;101150.97;5034144;28;45879;-39
2023/09/19 08:34:45;;;;;;;;;3.00;1.00;;;;;21.34;50.97;101158.59;5034782;28;46336;-44
2023/09/19 08:37:10;;;;;;;;;3.00;1.50;;;;;22.01;49.87;101157.50;5033449;28;45722;-46
2023/09/19 08:39:36;;;;;;;;;4.00;2.00;;;;;22.29;49.38;101157.25;5033507;28;45260;-39
2023/09/19 08:42:02;;;;;;;;;2.00;1.00;;;;;22.62;48.21;101153.53;5034507;28;45516;-39
2023/09/19 08:44:31;;;;;;;;;2.00;2.00;;;;;23.07;47.62;101150.81;5034290;28;45394;-38
2023/09/19 08:47:19;;;;;;;;;1.40;0.00;;;;;23.68;47.53;101152.00;5034258;28;46365;-40
2023/09/19 08:49:58;;;;;;;;;3.00;1.40;;;;;24.28;45.74;101152.22;5033601;28;45460;-40
2023/09/19 08:52:29;;;;;;;;;1.40;1.40;;;;;24.83;44.36;101160.34;5034310;28;45496;-38
2023/09/19 08:55:01;;;;;;;;;4.40;1.00;;;;;25.31;43.31;101152.06;5038599;28;45469;-39
2023/09/19 08:57:29;;;;;;;;;2.00;1.00;;;;;25.37;44.04;101147.59;5040718;28;47395;-39
2023/09/19 08:59:56;;;;;;;;;2.40;1.00;;;;;25.46;44.45;101143.47;5034093;28;45531;-40
2023/09/19 09:02:23;;;;;;;;;2.20;1.80;;;;;25.62;43.06;101155.56;5034060;28;45398;-39
2023/09/19 09:04:50;;;;;;;;;4.80;1.60;;;;;25.69;42.93;101142.63;5034100;28;45434;-39
2023/09/19 09:07:17;;;;;;;;;0.80;0.80;;;;;25.72;42.02;101131.25;5033972;28;47479;-38
2023/09/19 09:09:43;;;;;;;;;0.00;0.00;;;;;25.91;42.36;101140.16;5033391;28;45465;-41
2023/09/19 09:12:12;;;;;;;;;2.80;1.00;;;;;26.02;42.00;101133.88;5034224;28;45489;-40
2023/09/19 09:14:38;;;;;;;;;2.40;2.00;;;;;26.20;42.32;101148.41;5031943;28;45556;-39
2023/09/19 09:17:03;;;;;;;;;1.00;1.00;;;;;26.31;41.45;101139.38;5047913;28;46965;-38
2023/09/19 09:19:30;;;;;;;;;6.00;2.00;;;;;26.54;41.36;101142.03;5050632;28;45324;-41
2023/09/19 09:22:06;;;;;;;;;3.00;1.00;;;;;26.69;41.66;101137.97;5038796;28;45392;-43
2023/09/19 09:24:37;;;;;;;;;6.60;3.00;;;;;26.92;41.79;101129.66;5053015;28;45433;-39
2023/09/19 09:27:13;;;;;;;;;1.00;1.00;;;;;27.37;41.61;101128.81;5041320;28;47238;-39
2023/09/19 09:29:51;;;;;;;;;1.60;1.00;;;;;27.69;39.96;101118.09;5036664;28;45397;-40
2023/09/19 09:32:18;;;;;;;;;2.00;2.00;;;;;28.09;38.24;101123.31;5047590;28;45354;-42
2023/09/19 09:34:44;;;;;;;;;1.40;1.40;;;;;28.63;38.62;101122.59;5037628;28;45795;-42
2023/09/19 09:37:15;;;;;;;;;1.00;1.00;;;;;28.90;36.40;101111.63;5040447;28;46024;-39
2023/09/19 09:39:40;;;;;;;;;3.20;1.60;;;;;29.23;35.77;101120.72;5056721;28;45482;-43
2023/09/19 09:42:06;;;;;;;;;3.00;1.25;;;;;29.44;35.27;101108.81;5057398;28;45424;-43
2023/09/19 09:44:32;;;;;;;;;0.80;0.80;;;;;29.80;34.76;101109.91;5056555;28;45503;-40
2023/09/19 09:47:27;;;;;;;;;1.20;0.00;;;;;30.18;34.09;101126.28;5054732;28;46224;-43
2023/09/19 09:49:54;;;;;;;;;2.40;0.00;;;;;30.51;35.09;101122.28;5057093;28;45813;-44
2023/09/19 09:52:24;;;;;;;;;2.00;0.60;;;;;30.67;32.63;101120.38;5042071;28;45570;-44
2023/09/19 09:55:07;;;;;;;;;2.60;0.00;;;;;31.06;32.91;101113.31;5055261;28;45295;-48
2023/09/19 09:57:33;;;;;;;;;1.00;1.00;;;;;31.68;30.57;101110.53;5048387;28;47063;-40
2023/09/19 10:02:40;;;;;;;;;3.80;2.80;;;;;32.70;28.65;101107.34;5035403;28;45568;-43
2023/09/19 10:08:04;;;;;;;;;4.20;0.80;;;;;33.59;29.73;101105.25;5033322;28;45805;-44
2023/09/19 10:13:18;;;;;;;;;1.20;0.40;;;;;34.40;27.78;101111.72;5045492;28;45510;-40
2023/09/19 10:15:50;;;;;;;;;0.40;0.40;;;;;34.72;26.15;101102.72;5038083;28;45372;-39
2023/09/19 10:18:20;;;;;;;;;0.00;0.00;;;;;35.26;26.04;101092.16;5049321;28;46259;-42
2023/09/19 10:20:48;;;;;;;;;2.00;1.00;;;;;35.95;25.31;101083.94;5034142;28;45474;-39
2023/09/19 10:23:14;;;;;;;;;0.20;0.20;;;;;36.35;25.60;101096.09;5035407;28;45713;-41
2023/09/19 10:25:47;;;;;;;;;0.00;0.00;;;;;36.78;24.89;101087.34;5050013;28;45388;-40
2023/09/19 10:28:13;;;;;;;;;1.00;0.00;;;;;37.87;23.31;101093.34;5034294;28;45476;-38
2023/09/19 10:30:44;;;;;;;;;0.80;0.80;;;;;39.45;23.87;101089.44;5034730;28;45390;-38
2023/09/19 10:33:12;;;;;;;;;0.20;0.20;;;;;41.03;19.78;101089.66;5038090;28;45462;-41
2023/09/19 10:35:40;;;;;;;;;1.00;1.00;;;;;42.01;19.50;101088.94;5042701;28;45584;-39
2023/09/19 10:38:07;;;;;;;;;1.80;1.40;;;;;40.84;20.21;101090.19;5050534;28;45520;-38
2023/09/19 10:40:35;;;;;;;;;1.00;0.00;;;;;38.94;21.16;101083.66;5034715;28;45568;-40
2023/09/19 10:43:05;;;;;;;;;0.00;0.00;;;;;36.26;23.50;101063.91;5039164;28;45622;-41
2023/09/19 10:45:31;;;;;;;;;1.60;1.00;;;;;35.11;25.81;101089.69;5046843;28;45644;-39
2023/09/19 10:47:57;;;;;;;;;1.00;1.00;;;;;34.08;26.13;101081.25;5049060;28;47174;-39
2023/09/19 10:50:23;;;;;;;;;0.80;0.80;;;;;32.95;27.33;101081.56;5046980;28;45430;-40
2023/09/19 10:52:57;;;;;;;;;2.40;1.40;;;;;31.99;28.33;101089.28;5052625;28;45576;-40
2023/09/19 10:55:25;;;;;;;;;1.00;1.00;;;;;31.21;29.25;101081.44;5041461;28;45494;-39
2023/09/19 10:57:51;;;;;;;;;0.40;0.40;;;;;30.57;30.21;101085.50;5053439;28;45480;-39
2023/09/19 11:00:23;;;;;;;;;2.20;2.20;;;;;30.07;30.55;101092.47;5057487;28;45282;-39
2023/09/19 11:03:17;;;;;;;;;3.60;0.60;;;;;30.00;31.07;101080.91;5057756;28;45342;-43
2023/09/19 11:05:42;;;;;;;;;2.00;1.00;;;;;30.09;31.29;101079.31;5057848;28;45312;-38
2023/09/19 11:08:08;;;;;;;;;1.00;1.00;;;;;31.00;30.43;101075.13;5057234;28;47049;-42
2023/09/19 11:10:54;;;;;;;;;1.00;1.00;;;;;30.98;29.62;101086.41;5057439;28;45473;-41
2023/09/19 11:13:34;;;;;;;;;1.60;0.00;;;;;30.54;30.87;101088.78;5057679;28;45611;-39
2023/09/19 11:16:04;;;;;;;;;2.60;1.00;;;;;30.06;31.57;101099.88;5057387;28;45223;-49
2023/09/19 11:18:42;;;;;;;;;1.00;0.40;;;;;29.46;31.79;101097.59;5057283;28;46169;-42
2023/09/19 11:21:33;;;;;;;;;0.40;0.40;;;;;28.88;32.88;101080.13;5057396;28;45350;-39
2023/09/19 11:24:21;;;;;;;;;1.40;1.40;;;;;28.50;33.48;101085.53;5057452;28;45416;-42
2023/09/19 11:26:48;;;;;;;;;2.60;1.00;;;;;28.11;33.53;101076.56;5057682;28;45226;-44
2023/09/19 11:29:33;;;;;;;;;1.00;1.00;;;;;27.88;33.98;101074.91;5056909;28;46247;-40
2023/09/19 11:32:01;;;;;;;;;1.00;1.00;;;;;27.64;34.07;101068.81;5057054;28;45335;-40
2023/09/19 11:34:36;;;;;;;;;1.40;0.20;;;;;27.30;35.00;101077.06;5056934;28;45516;-42
2023/09/19 11:37:22;;;;;;;;;0.40;0.40;;;;;27.04;35.20;101070.34;5056756;28;45353;-41
2023/09/19 11:40:15;;;;;;;;;2.40;2.40;;;;;26.75;35.54;101075.03;5014754;28;46388;-39